sensor_id;sensor_type;location;lat;lon;timestamp;pressure;altitude;pressure_sealevel;temperature;humidity
30714;BME280;17465;47.934;33.430;2022-07-12T00:01:13;99871.03;;;16.66;100.00
30714;BME280;17465;47.934;33.430;2022-07-12T00:03:43;99881.07;;;16.76;100.00
30714;BME280;17465;47.934;33.430;2022-07-12T00:06:14;99878.77;;;16.63;100.00
30714;BME280;17465;47.934;33.430;2022-07-12T00:08:44;99894.11;;;16.59;100.00
30714;BME280;17465;47.934;33.430;2022-07-12T00:11:15;99894.11;;;16.59;100.00
30714;BME280;17465;47.934;33.430;2022-07-12T00:13:45;99901.86;;;16.66;100.00
30714;BME280;17465;47.934;33.430;2022-07-12T00:16:16;99895.69;;;16.51;100.00
30714;BME280;17465;47.934;33.430;2022-07-12T00:18:46;99895.69;;;16.51;100.00
30714;BME280;17465;47.934;33.430;2022-07-12T00:21:17;99891.14;;;16.52;100.00
30714;BME280;17465;47.934;33.430;2022-07-12T00:23:48;99909.28;;;16.49;100.00
30714;BME280;17465;47.934;33.430;2022-07-12T00:26:18;99898.49;;;16.51;100.00
30714;BME280;17465;47.934;33.430;2022-07-12T00:28:49;99973.79;;;16.52;100.00
30714;BME280;17465;47.934;33.430;2022-07-12T00:31:19;99912.78;;;16.21;100.00
30714;BME280;17465;47.934;33.430;2022-07-12T00:33:50;99912.78;;;16.21;100.00
30714;BME280;17465;47.934;33.430;2022-07-12T00:36:20;99905.97;;;16.12;100.00
30714;BME280;17465;47.934;33.430;2022-07-12T00:38:51;99905.97;;;16.12;100.00
30714;BME280;17465;47.934;33.430;2022-07-12T00:41:22;99911.55;;;16.28;100.00
30714;BME280;17465;47.934;33.430;2022-07-12T00:43:52;99915.66;;;16.09;100.00
30714;BME280;17465;47.934;33.430;2022-07-12T00:46:30;99921.10;;;16.17;100.00
30714;BME280;17465;47.934;33.430;2022-07-12T00:51:55;99924.81;;;16.06;100.00
30714;BME280;17465;47.934;33.430;2022-07-12T00:54:25;99932.31;;;16.02;100.00
30714;BME280;17465;47.934;33.430;2022-07-12T00:56:56;99925.42;;;15.99;100.00
30714;BME280;17465;47.934;33.430;2022-07-12T00:59:26;99925.42;;;15.99;100.00
30714;BME280;17465;47.934;33.430;2022-07-12T01:01:57;99924.63;;;15.99;100.00
30714;BME280;17465;47.934;33.430;2022-07-12T01:04:27;99929.44;;;16.08;100.00
30714;BME280;17465;47.934;33.430;2022-07-12T01:06:59;99925.77;;;16.04;100.00
30714;BME280;17465;47.934;33.430;2022-07-12T01:09:29;99929.66;;;16.09;100.00
30714;BME280;17465;47.934;33.430;2022-07-12T01:12:00;99934.09;;;16.10;100.00
30714;BME280;17465;47.934;33.430;2022-07-12T01:14:31;99934.09;;;16.10;100.00
30714;BME280;17465;47.934;33.430;2022-07-12T01:17:03;99932.23;;;16.08;100.00
30714;BME280;17465;47.934;33.430;2022-07-12T01:19:34;99940.18;;;16.21;100.00
30714;BME280;17465;47.934;33.430;2022-07-12T01:22:10;99935.56;;;16.04;100.00
30714;BME280;17465;47.934;33.430;2022-07-12T01:24:41;99936.89;;;16.10;100.00
30714;BME280;17465;47.934;33.430;2022-07-12T01:27:13;99936.89;;;16.10;100.00
30714;BME280;17465;47.934;33.430;2022-07-12T01:29:43;99932.39;;;16.05;100.00
30714;BME280;17465;47.934;33.430;2022-07-12T01:32:13;99934.69;;;16.09;100.00
30714;BME280;17465;47.934;33.430;2022-07-12T01:34:44;99934.69;;;16.09;100.00
30714;BME280;17465;47.934;33.430;2022-07-12T01:37:16;99933.94;;;16.03;100.00
30714;BME280;17465;47.934;33.430;2022-07-12T01:39:48;99949.11;;;16.02;100.00
30714;BME280;17465;47.934;33.430;2022-07-12T01:42:24;99939.87;;;16.01;100.00
30714;BME280;17465;47.934;33.430;2022-07-12T01:44:55;99959.28;;;16.25;100.00
30714;BME280;17465;47.934;33.430;2022-07-12T01:47:29;99959.28;;;16.25;100.00
30714;BME280;17465;47.934;33.430;2022-07-12T01:50:00;99961.70;;;16.02;100.00
30714;BME280;17465;47.934;33.430;2022-07-12T01:52:31;99971.00;;;15.90;100.00
30714;BME280;17465;47.934;33.430;2022-07-12T01:55:04;99971.00;;;15.90;100.00
30714;BME280;17465;47.934;33.430;2022-07-12T01:57:37;99968.68;;;15.50;100.00
30714;BME280;17465;47.934;33.430;2022-07-12T02:00:08;99972.31;;;15.66;100.00
30714;BME280;17465;47.934;33.430;2022-07-12T02:02:39;99972.31;;;15.66;100.00
30714;BME280;17465;47.934;33.430;2022-07-12T02:05:12;99981.52;;;15.45;100.00
30714;BME280;17465;47.934;33.430;2022-07-12T02:07:43;99981.38;;;15.47;100.00
30714;BME280;17465;47.934;33.430;2022-07-12T02:10:14;99986.41;;;15.48;100.00
30714;BME280;17465;47.934;33.430;2022-07-12T02:12:44;99986.41;;;15.48;100.00
30714;BME280;17465;47.934;33.430;2022-07-12T02:15:15;99989.77;;;15.47;100.00
30714;BME280;17465;47.934;33.430;2022-07-12T02:17:46;99986.26;;;15.17;100.00
30714;BME280;17465;47.934;33.430;2022-07-12T02:20:17;99986.26;;;15.17;100.00
30714;BME280;17465;47.934;33.430;2022-07-12T02:22:47;99990.38;;;15.47;100.00
30714;BME280;17465;47.934;33.430;2022-07-12T02:25:18;99992.97;;;15.34;100.00
30714;BME280;17465;47.934;33.430;2022-07-12T02:27:49;99993.91;;;15.32;100.00
30714;BME280;17465;47.934;33.430;2022-07-12T02:30:19;99990.20;;;15.22;100.00
30714;BME280;17465;47.934;33.430;2022-07-12T02:32:49;99990.20;;;15.22;100.00
30714;BME280;17465;47.934;33.430;2022-07-12T02:35:21;99992.95;;;15.40;100.00
30714;BME280;17465;47.934;33.430;2022-07-12T02:37:54;99994.28;;;15.30;100.00
30714;BME280;17465;47.934;33.430;2022-07-12T02:40:26;100003.34;;;15.39;100.00
30714;BME280;17465;47.934;33.430;2022-07-12T02:42:57;100003.34;;;15.39;100.00
30714;BME280;17465;47.934;33.430;2022-07-12T02:45:28;99993.01;;;15.55;100.00
30714;BME280;17465;47.934;33.430;2022-07-12T02:48:06;99988.85;;;15.43;100.00
30714;BME280;17465;47.934;33.430;2022-07-12T02:50:53;100000.50;;;15.45;100.00
30714;BME280;17465;47.934;33.430;2022-07-12T02:53:35;100003.11;;;15.60;100.00
30714;BME280;17465;47.934;33.430;2022-07-12T02:56:08;100006.27;;;15.80;100.00
30714;BME280;17465;47.934;33.430;2022-07-12T02:58:40;100006.03;;;15.79;100.00
30714;BME280;17465;47.934;33.430;2022-07-12T03:01:11;100004.92;;;15.46;100.00
30714;BME280;17465;47.934;33.430;2022-07-12T03:03:41;100004.92;;;15.46;100.00
30714;BME280;17465;47.934;33.430;2022-07-12T03:06:12;100005.27;;;15.72;100.00
30714;BME280;17465;47.934;33.430;2022-07-12T03:08:42;99997.09;;;15.73;100.00
30714;BME280;17465;47.934;33.430;2022-07-12T03:11:14;100008.09;;;15.66;100.00
30714;BME280;17465;47.934;33.430;2022-07-12T03:13:45;100008.09;;;15.66;100.00
30714;BME280;17465;47.934;33.430;2022-07-12T03:16:15;100006.34;;;15.68;100.00
30714;BME280;17465;47.934;33.430;2022-07-12T03:18:47;100008.81;;;15.85;100.00
30714;BME280;17465;47.934;33.430;2022-07-12T03:21:18;99999.44;;;15.71;100.00
30714;BME280;17465;47.934;33.430;2022-07-12T03:23:49;99999.16;;;15.82;100.00
30714;BME280;17465;47.934;33.430;2022-07-12T03:26:21;99999.16;;;15.82;100.00
30714;BME280;17465;47.934;33.430;2022-07-12T03:28:52;100009.50;;;15.88;100.00
30714;BME280;17465;47.934;33.430;2022-07-12T03:31:22;100009.50;;;15.88;100.00
30714;BME280;17465;47.934;33.430;2022-07-12T03:33:53;100013.32;;;15.89;100.00
30714;BME280;17465;47.934;33.430;2022-07-12T03:36:24;100013.32;;;15.89;100.00
30714;BME280;17465;47.934;33.430;2022-07-12T03:38:55;100009.02;;;15.91;100.00
30714;BME280;17465;47.934;33.430;2022-07-12T03:41:27;100022.70;;;16.18;100.00
30714;BME280;17465;47.934;33.430;2022-07-12T03:43:58;100022.70;;;16.18;100.00
30714;BME280;17465;47.934;33.430;2022-07-12T03:46:28;100030.36;;;16.42;100.00
30714;BME280;17465;47.934;33.430;2022-07-12T03:48:59;100030.36;;;16.42;100.00
30714;BME280;17465;47.934;33.430;2022-07-12T03:51:30;100026.11;;;16.17;100.00
30714;BME280;17465;47.934;33.430;2022-07-12T03:54:05;100026.11;;;16.17;100.00
30714;BME280;17465;47.934;33.430;2022-07-12T03:56:33;100024.98;;;16.43;100.00
30714;BME280;17465;47.934;33.430;2022-07-12T03:59:06;100035.92;;;16.33;100.00
30714;BME280;17465;47.934;33.430;2022-07-12T04:01:37;100037.20;;;16.35;100.00
30714;BME280;17465;47.934;33.430;2022-07-12T04:04:08;100035.77;;;16.91;99.76
30714;BME280;17465;47.934;33.430;2022-07-12T04:06:38;100038.02;;;17.01;99.30
30714;BME280;17465;47.934;33.430;2022-07-12T04:09:09;100038.02;;;17.01;99.30
30714;BME280;17465;47.934;33.430;2022-07-12T04:11:40;100048.38;;;17.25;98.21
30714;BME280;17465;47.934;33.430;2022-07-12T04:14:14;100046.80;;;17.18;98.15
30714;BME280;17465;47.934;33.430;2022-07-12T04:16:55;100046.80;;;17.18;98.15
30714;BME280;17465;47.934;33.430;2022-07-12T04:19:30;100049.05;;;17.28;97.47
30714;BME280;17465;47.934;33.430;2022-07-12T04:22:00;100049.05;;;17.28;97.47
30714;BME280;17465;47.934;33.430;2022-07-12T04:24:31;100058.24;;;17.44;94.44
30714;BME280;17465;47.934;33.430;2022-07-12T04:27:02;100063.72;;;17.75;93.94
30714;BME280;17465;47.934;33.430;2022-07-12T04:29:32;100063.72;;;17.75;93.94
30714;BME280;17465;47.934;33.430;2022-07-12T04:32:04;100068.31;;;17.83;92.77
30714;BME280;17465;47.934;33.430;2022-07-12T04:34:35;100064.83;;;17.90;91.67
30714;BME280;17465;47.934;33.430;2022-07-12T04:37:05;100073.53;;;17.94;90.75
30714;BME280;17465;47.934;33.430;2022-07-12T04:39:36;100079.62;;;18.09;90.97
30714;BME280;17465;47.934;33.430;2022-07-12T04:42:07;100079.62;;;18.09;90.97
30714;BME280;17465;47.934;33.430;2022-07-12T04:44:39;100071.94;;;18.34;88.66
30714;BME280;17465;47.934;33.430;2022-07-12T04:47:10;100079.39;;;18.17;88.99
30714;BME280;17465;47.934;33.430;2022-07-12T04:49:41;100078.77;;;18.24;89.05
30714;BME280;17465;47.934;33.430;2022-07-12T04:52:11;100081.11;;;18.22;89.21
30714;BME280;17465;47.934;33.430;2022-07-12T04:54:43;100087.34;;;18.89;85.09
30714;BME280;17465;47.934;33.430;2022-07-12T04:57:13;100087.34;;;18.89;85.09
30714;BME280;17465;47.934;33.430;2022-07-12T04:59:45;100084.97;;;18.91;83.87
30714;BME280;17465;47.934;33.430;2022-07-12T05:02:15;100084.97;;;18.91;83.87
30714;BME280;17465;47.934;33.430;2022-07-12T05:04:46;100082.84;;;18.49;84.83
30714;BME280;17465;47.934;33.430;2022-07-12T05:07:16;100086.95;;;19.13;83.06
30714;BME280;17465;47.934;33.430;2022-07-12T05:09:47;100093.61;;;19.27;82.04
30714;BME280;17465;47.934;33.430;2022-07-12T05:12:18;100100.77;;;19.80;79.73
30714;BME280;17465;47.934;33.430;2022-07-12T05:14:49;100100.77;;;19.80;79.73
30714;BME280;17465;47.934;33.430;2022-07-12T05:17:20;100100.95;;;19.77;79.14
30714;BME280;17465;47.934;33.430;2022-07-12T05:19:50;100105.70;;;19.31;79.90
30714;BME280;17465;47.934;33.430;2022-07-12T05:22:21;100106.51;;;19.74;79.76
30714;BME280;17465;47.934;33.430;2022-07-12T05:24:52;100099.80;;;19.52;80.88
30714;BME280;17465;47.934;33.430;2022-07-12T05:27:22;100099.80;;;19.52;80.88
30714;BME280;17465;47.934;33.430;2022-07-12T05:29:54;100117.16;;;19.87;77.70
30714;BME280;17465;47.934;33.430;2022-07-12T05:32:33;100102.70;;;19.89;78.75
30714;BME280;17465;47.934;33.430;2022-07-12T05:35:03;100102.70;;;19.89;78.75
30714;BME280;17465;47.934;33.430;2022-07-12T05:37:34;100101.05;;;20.17;76.57
30714;BME280;17465;47.934;33.430;2022-07-12T05:40:05;100101.05;;;20.17;76.57
30714;BME280;17465;47.934;33.430;2022-07-12T05:42:36;100110.25;;;20.47;76.79
30714;BME280;17465;47.934;33.430;2022-07-12T05:45:07;100113.23;;;20.44;76.56
30714;BME280;17465;47.934;33.430;2022-07-12T05:47:37;100108.31;;;20.78;75.98
30714;BME280;17465;47.934;33.430;2022-07-12T05:50:09;100110.78;;;21.03;75.92
30714;BME280;17465;47.934;33.430;2022-07-12T05:52:39;100110.78;;;21.03;75.92
30714;BME280;17465;47.934;33.430;2022-07-12T05:55:10;100110.92;;;21.20;74.75
30714;BME280;17465;47.934;33.430;2022-07-12T05:57:40;100106.38;;;20.65;76.18
30714;BME280;17465;47.934;33.430;2022-07-12T06:00:12;100106.38;;;20.65;76.18
30714;BME280;17465;47.934;33.430;2022-07-12T06:02:43;100107.00;;;20.65;75.09
30714;BME280;17465;47.934;33.430;2022-07-12T06:05:14;100101.86;;;20.94;73.19
30714;BME280;17465;47.934;33.430;2022-07-12T06:07:45;100101.86;;;20.94;73.19
30714;BME280;17465;47.934;33.430;2022-07-12T06:10:16;100110.61;;;20.82;74.18
30714;BME280;17465;47.934;33.430;2022-07-12T06:12:47;100102.59;;;20.87;73.72
30714;BME280;17465;47.934;33.430;2022-07-12T06:15:18;100107.95;;;21.56;70.45
30714;BME280;17465;47.934;33.430;2022-07-12T06:17:49;100107.95;;;21.56;70.45
30714;BME280;17465;47.934;33.430;2022-07-12T06:20:20;100103.95;;;21.61;70.04
30714;BME280;17465;47.934;33.430;2022-07-12T06:22:50;100105.89;;;21.84;68.05
30714;BME280;17465;47.934;33.430;2022-07-12T06:25:22;100111.02;;;22.05;67.11
30714;BME280;17465;47.934;33.430;2022-07-12T06:27:54;100111.02;;;22.05;67.11
30714;BME280;17465;47.934;33.430;2022-07-12T06:30:24;100126.34;;;21.97;66.29
30714;BME280;17465;47.934;33.430;2022-07-12T06:32:55;100126.34;;;21.97;66.29
30714;BME280;17465;47.934;33.430;2022-07-12T06:35:27;100118.49;;;22.62;63.15
30714;BME280;17465;47.934;33.430;2022-07-12T06:38:00;100118.49;;;22.62;63.15
30714;BME280;17465;47.934;33.430;2022-07-12T06:40:30;100119.91;;;22.58;61.80
30714;BME280;17465;47.934;33.430;2022-07-12T06:43:01;100119.91;;;22.58;61.80
30714;BME280;17465;47.934;33.430;2022-07-12T06:45:31;100112.03;;;22.65;60.28
30714;BME280;17465;47.934;33.430;2022-07-12T06:48:02;100112.03;;;22.65;60.28
30714;BME280;17465;47.934;33.430;2022-07-12T06:50:33;100115.05;;;22.59;62.45
30714;BME280;17465;47.934;33.430;2022-07-12T06:53:09;100120.17;;;23.08;60.72
30714;BME280;17465;47.934;33.430;2022-07-12T06:55:35;100115.08;;;23.01;58.95
30714;BME280;17465;47.934;33.430;2022-07-12T06:58:05;100115.08;;;23.01;58.95
30714;BME280;17465;47.934;33.430;2022-07-12T07:00:36;100129.22;;;23.77;56.27
30714;BME280;17465;47.934;33.430;2022-07-12T07:03:07;100129.22;;;23.77;56.27
30714;BME280;17465;47.934;33.430;2022-07-12T07:05:39;100129.46;;;23.40;56.62
30714;BME280;17465;47.934;33.430;2022-07-12T07:08:09;100125.34;;;23.72;55.32
30714;BME280;17465;47.934;33.430;2022-07-12T07:10:40;100134.08;;;24.27;53.95
30714;BME280;17465;47.934;33.430;2022-07-12T07:13:14;100134.08;;;24.27;53.95
30714;BME280;17465;47.934;33.430;2022-07-12T07:15:45;100139.52;;;24.72;53.07
30714;BME280;17465;47.934;33.430;2022-07-12T07:18:16;100141.08;;;25.56;48.08
30714;BME280;17465;47.934;33.430;2022-07-12T07:20:46;100132.34;;;25.59;46.84
30714;BME280;17465;47.934;33.430;2022-07-12T07:23:17;100132.34;;;25.59;46.84
30714;BME280;17465;47.934;33.430;2022-07-12T07:25:48;100130.05;;;24.92;48.65
30714;BME280;17465;47.934;33.430;2022-07-12T07:28:19;100136.48;;;25.29;45.60
30714;BME280;17465;47.934;33.430;2022-07-12T07:30:51;100136.48;;;25.29;45.60
30714;BME280;17465;47.934;33.430;2022-07-12T07:33:23;100140.70;;;26.13;42.36
30714;BME280;17465;47.934;33.430;2022-07-12T07:35:53;100140.70;;;26.13;42.36
30714;BME280;17465;47.934;33.430;2022-07-12T07:38:24;100139.03;;;26.90;40.38
30714;BME280;17465;47.934;33.430;2022-07-12T07:40:54;100140.45;;;26.75;40.91
30714;BME280;17465;47.934;33.430;2022-07-12T07:43:25;100139.56;;;26.93;39.59
30714;BME280;17465;47.934;33.430;2022-07-12T07:45:56;100138.72;;;27.11;39.58
30714;BME280;17465;47.934;33.430;2022-07-12T07:48:26;100149.58;;;27.65;37.68
30714;BME280;17465;47.934;33.430;2022-07-12T07:50:57;100149.58;;;27.65;37.68
30714;BME280;17465;47.934;33.430;2022-07-12T07:53:27;100148.16;;;27.54;38.06
30714;BME280;17465;47.934;33.430;2022-07-12T07:55:58;100148.16;;;27.54;38.06
30714;BME280;17465;47.934;33.430;2022-07-12T07:58:28;100147.82;;;27.60;37.74
30714;BME280;17465;47.934;33.430;2022-07-12T08:00:59;100147.82;;;27.60;37.74
30714;BME280;17465;47.934;33.430;2022-07-12T08:03:30;100156.03;;;28.42;36.74
30714;BME280;17465;47.934;33.430;2022-07-12T08:06:07;100151.80;;;28.19;35.18
30714;BME280;17465;47.934;33.430;2022-07-12T08:08:38;100146.35;;;27.63;35.41
30714;BME280;17465;47.934;33.430;2022-07-12T08:11:10;100142.00;;;27.55;36.54
30714;BME280;17465;47.934;33.430;2022-07-12T08:13:44;100145.31;;;27.42;37.20
30714;BME280;17465;47.934;33.430;2022-07-12T08:16:14;100145.31;;;27.42;37.20
30714;BME280;17465;47.934;33.430;2022-07-12T08:18:45;100152.48;;;28.15;37.32
30714;BME280;17465;47.934;33.430;2022-07-12T08:21:16;100160.87;;;28.53;35.51
30714;BME280;17465;47.934;33.430;2022-07-12T08:23:47;100158.24;;;28.43;36.23
30714;BME280;17465;47.934;33.430;2022-07-12T08:26:18;100158.24;;;28.43;36.23
30714;BME280;17465;47.934;33.430;2022-07-12T08:28:49;100162.15;;;27.91;36.58
30714;BME280;17465;47.934;33.430;2022-07-12T08:31:19;100162.15;;;27.91;36.58
30714;BME280;17465;47.934;33.430;2022-07-12T08:33:51;100156.47;;;28.68;36.48
30714;BME280;17465;47.934;33.430;2022-07-12T08:36:21;100156.47;;;28.68;36.48
30714;BME280;17465;47.934;33.430;2022-07-12T08:38:51;100163.68;;;28.84;34.08
30714;BME280;17465;47.934;33.430;2022-07-12T08:41:22;100154.42;;;27.34;36.94
30714;BME280;17465;47.934;33.430;2022-07-12T08:43:52;100159.20;;;28.36;33.75
30714;BME280;17465;47.934;33.430;2022-07-12T08:46:24;100154.34;;;28.80;33.06
30714;BME280;17465;47.934;33.430;2022-07-12T08:48:54;100150.59;;;28.28;34.01
30714;BME280;17465;47.934;33.430;2022-07-12T08:51:25;100160.23;;;29.01;33.68
30714;BME280;17465;47.934;33.430;2022-07-12T08:54:08;100160.23;;;29.01;33.68
30714;BME280;17465;47.934;33.430;2022-07-12T08:56:41;100150.87;;;28.45;31.61
30714;BME280;17465;47.934;33.430;2022-07-12T08:59:16;100152.83;;;29.27;32.04
30714;BME280;17465;47.934;33.430;2022-07-12T09:01:49;100152.83;;;29.27;32.04
30714;BME280;17465;47.934;33.430;2022-07-12T09:04:27;100144.83;;;28.59;33.10
30714;BME280;17465;47.934;33.430;2022-07-12T09:07:10;100156.34;;;28.64;31.52
30714;BME280;17465;47.934;33.430;2022-07-12T09:09:34;100163.46;;;29.34;30.22
30714;BME280;17465;47.934;33.430;2022-07-12T09:12:05;100168.08;;;28.97;30.55
30714;BME280;17465;47.934;33.430;2022-07-12T09:14:40;100168.08;;;28.97;30.55
30714;BME280;17465;47.934;33.430;2022-07-12T09:17:11;100154.22;;;28.09;31.57
30714;BME280;17465;47.934;33.430;2022-07-12T09:19:53;100154.22;;;28.09;31.57
30714;BME280;17465;47.934;33.430;2022-07-12T09:22:21;100144.78;;;27.59;33.55
30714;BME280;17465;47.934;33.430;2022-07-12T09:24:51;100153.86;;;28.85;31.71
30714;BME280;17465;47.934;33.430;2022-07-12T09:27:25;100151.56;;;28.49;31.19
30714;BME280;17465;47.934;33.430;2022-07-12T09:29:57;100150.68;;;28.44;32.46
30714;BME280;17465;47.934;33.430;2022-07-12T09:32:29;100150.68;;;28.44;32.46
30714;BME280;17465;47.934;33.430;2022-07-12T09:34:59;100146.47;;;28.96;32.46
30714;BME280;17465;47.934;33.430;2022-07-12T09:37:32;100155.55;;;30.10;31.71
30714;BME280;17465;47.934;33.430;2022-07-12T09:40:05;100163.80;;;30.49;29.48
30714;BME280;17465;47.934;33.430;2022-07-12T09:42:39;100150.67;;;29.39;29.46
30714;BME280;17465;47.934;33.430;2022-07-12T09:45:10;100150.67;;;29.39;29.46
30714;BME280;17465;47.934;33.430;2022-07-12T09:47:42;100153.52;;;30.51;28.15
30714;BME280;17465;47.934;33.430;2022-07-12T09:50:13;100153.52;;;30.51;28.15
30714;BME280;17465;47.934;33.430;2022-07-12T09:52:45;100151.14;;;31.08;27.83
30714;BME280;17465;47.934;33.430;2022-07-12T09:55:18;100151.14;;;31.08;27.83
30714;BME280;17465;47.934;33.430;2022-07-12T09:57:52;100153.22;;;31.20;29.09
30714;BME280;17465;47.934;33.430;2022-07-12T10:00:25;100159.55;;;31.44;28.68
30714;BME280;17465;47.934;33.430;2022-07-12T10:02:57;100159.55;;;31.44;28.68
30714;BME280;17465;47.934;33.430;2022-07-12T10:05:30;100147.52;;;30.46;29.68
30714;BME280;17465;47.934;33.430;2022-07-12T10:08:01;100147.52;;;30.46;29.68
30714;BME280;17465;47.934;33.430;2022-07-12T10:10:32;100150.22;;;31.35;27.72
30714;BME280;17465;47.934;33.430;2022-07-12T10:13:03;100150.22;;;31.35;27.72
30714;BME280;17465;47.934;33.430;2022-07-12T10:15:37;100147.16;;;30.97;28.48
30714;BME280;17465;47.934;33.430;2022-07-12T10:18:17;100155.58;;;30.96;28.83
30714;BME280;17465;47.934;33.430;2022-07-12T10:20:49;100141.56;;;29.04;31.29
30714;BME280;17465;47.934;33.430;2022-07-12T10:23:34;100141.56;;;29.04;31.29
30714;BME280;17465;47.934;33.430;2022-07-12T10:26:35;100135.25;;;27.57;34.06
30714;BME280;17465;47.934;33.430;2022-07-12T10:29:04;100135.25;;;27.57;34.06
30714;BME280;17465;47.934;33.430;2022-07-12T10:31:38;100142.00;;;28.67;32.65
30714;BME280;17465;47.934;33.430;2022-07-12T10:34:19;100138.08;;;30.61;28.63
30714;BME280;17465;47.934;33.430;2022-07-12T10:39:32;100139.10;;;31.13;29.18
30714;BME280;17465;47.934;33.430;2022-07-12T10:42:12;100138.16;;;31.03;27.16
30714;BME280;17465;47.934;33.430;2022-07-12T10:44:47;100138.16;;;31.03;27.16
30714;BME280;17465;47.934;33.430;2022-07-12T10:47:17;100137.38;;;30.57;29.45
30714;BME280;17465;47.934;33.430;2022-07-12T10:49:50;100138.95;;;30.38;28.90
30714;BME280;17465;47.934;33.430;2022-07-12T10:52:25;100137.94;;;30.98;28.81
30714;BME280;17465;47.934;33.430;2022-07-12T10:57:42;100143.48;;;30.51;28.87
30714;BME280;17465;47.934;33.430;2022-07-12T11:00:18;100136.08;;;29.89;29.50
30714;BME280;17465;47.934;33.430;2022-07-12T11:02:50;100133.25;;;30.58;28.70
30714;BME280;17465;47.934;33.430;2022-07-12T11:05:25;100134.41;;;31.06;28.38
30714;BME280;17465;47.934;33.430;2022-07-12T11:07:56;100141.07;;;31.45;28.52
30714;BME280;17465;47.934;33.430;2022-07-12T11:10:28;100138.59;;;30.64;29.13
30714;BME280;17465;47.934;33.430;2022-07-12T11:12:58;100133.84;;;30.17;28.94
30714;BME280;17465;47.934;33.430;2022-07-12T11:15:32;100143.17;;;32.67;26.24
30714;BME280;17465;47.934;33.430;2022-07-12T11:18:03;100157.50;;;33.63;24.39
30714;BME280;17465;47.934;33.430;2022-07-12T11:20:34;100133.52;;;31.01;27.57
30714;BME280;17465;47.934;33.430;2022-07-12T11:23:04;100135.73;;;29.79;28.61
30714;BME280;17465;47.934;33.430;2022-07-12T11:25:37;100135.73;;;29.79;28.61
30714;BME280;17465;47.934;33.430;2022-07-12T11:28:10;100129.02;;;31.08;28.29
30714;BME280;17465;47.934;33.430;2022-07-12T11:30:48;100135.72;;;31.10;27.52
30714;BME280;17465;47.934;33.430;2022-07-12T11:33:36;100135.72;;;31.10;27.52
30714;BME280;17465;47.934;33.430;2022-07-12T11:36:09;100130.55;;;32.10;26.06
30714;BME280;17465;47.934;33.430;2022-07-12T11:38:47;100137.76;;;32.52;27.28
30714;BME280;17465;47.934;33.430;2022-07-12T11:41:17;100137.76;;;32.52;27.28
30714;BME280;17465;47.934;33.430;2022-07-12T11:43:48;100135.02;;;31.18;26.05
30714;BME280;17465;47.934;33.430;2022-07-12T11:46:19;100134.33;;;30.48;28.36
30714;BME280;17465;47.934;33.430;2022-07-12T11:48:52;100121.83;;;28.74;30.47
30714;BME280;17465;47.934;33.430;2022-07-12T11:51:34;100121.83;;;28.74;30.47
30714;BME280;17465;47.934;33.430;2022-07-12T11:54:23;100130.65;;;28.99;29.74
30714;BME280;17465;47.934;33.430;2022-07-12T11:57:05;100130.65;;;28.99;29.74
30714;BME280;17465;47.934;33.430;2022-07-12T11:59:37;100126.96;;;27.97;29.96
30714;BME280;17465;47.934;33.430;2022-07-12T12:02:15;100123.82;;;29.81;30.16
30714;BME280;17465;47.934;33.430;2022-07-12T12:05:24;100123.82;;;29.81;30.16
30714;BME280;17465;47.934;33.430;2022-07-12T12:08:30;100142.58;;;31.96;26.52
30714;BME280;17465;47.934;33.430;2022-07-12T12:17:15;100118.28;;;29.98;27.94
30714;BME280;17465;47.934;33.430;2022-07-12T12:20:24;100117.69;;;30.11;29.16
30714;BME280;17465;47.934;33.430;2022-07-12T12:22:59;100118.72;;;31.15;28.04
30714;BME280;17465;47.934;33.430;2022-07-12T12:25:32;100115.19;;;30.53;26.47
30714;BME280;17465;47.934;33.430;2022-07-12T12:28:06;100118.16;;;30.09;27.97
30714;BME280;17465;47.934;33.430;2022-07-12T12:30:55;100110.77;;;31.44;26.36
30714;BME280;17465;47.934;33.430;2022-07-12T12:36:31;100132.94;;;32.49;25.03
30714;BME280;17465;47.934;33.430;2022-07-12T12:39:01;100114.37;;;31.23;26.07
30714;BME280;17465;47.934;33.430;2022-07-12T12:41:40;100116.14;;;32.01;25.37
30714;BME280;17465;47.934;33.430;2022-07-12T12:44:12;100123.47;;;32.87;24.53
30714;BME280;17465;47.934;33.430;2022-07-12T12:46:50;100125.11;;;33.32;24.89
30714;BME280;17465;47.934;33.430;2022-07-12T12:52:11;100122.11;;;33.10;23.51
30714;BME280;17465;47.934;33.430;2022-07-12T12:54:43;100103.70;;;30.99;26.24
30714;BME280;17465;47.934;33.430;2022-07-12T12:57:13;100103.70;;;30.99;26.24
30714;BME280;17465;47.934;33.430;2022-07-12T12:59:44;100109.11;;;30.51;26.63
30714;BME280;17465;47.934;33.430;2022-07-12T13:02:17;100104.84;;;30.76;27.67
30714;BME280;17465;47.934;33.430;2022-07-12T13:04:49;100105.60;;;30.31;28.13
30714;BME280;17465;47.934;33.430;2022-07-12T13:07:33;100103.91;;;30.67;27.72
30714;BME280;17465;47.934;33.430;2022-07-12T13:09:58;100103.91;;;30.67;27.72
30714;BME280;17465;47.934;33.430;2022-07-12T13:12:28;100115.93;;;31.49;26.82
30714;BME280;17465;47.934;33.430;2022-07-12T13:14:59;100121.87;;;31.67;26.77
30714;BME280;17465;47.934;33.430;2022-07-12T13:17:30;100112.19;;;32.46;25.70
30714;BME280;17465;47.934;33.430;2022-07-12T13:20:01;100112.19;;;32.46;25.70
30714;BME280;17465;47.934;33.430;2022-07-12T13:22:32;100114.56;;;31.58;25.09
30714;BME280;17465;47.934;33.430;2022-07-12T13:25:02;100119.97;;;30.64;26.16